LIRV

Viterbo Airport

Viterbo, Italy
TAF LIRV 231400Z 2315/2324 VRB03KT CAVOK PROB30 TEMPO 2315/2317 FEW030CB
Issued Valid From Valid To
Apr-23 @ 14:00 UTC
(9 hours ago)
Apr-23 @ 15:00 UTC
(8 hours ago)
Apr-24 @ 00:00 UTC
(in 53 minutes)
Apr-23 @ 15:00 to Apr-24 @ 00:00
TAF LIRV 231400Z 2315/2324 VRB03KT CAVOK
Wind Visibility Clouds Conditions
Variable at 3 knots 10,000+ meters
  • No significant clouds
Expired Click to View Apr-23 @ 15:00 to Apr-23 @ 17:00
PROB30 TEMPO 2315/2317 FEW030CB
Clouds
  • Few at 3,000' AGL
TAF LIRV 231400Z 2315/2324 VRB03KT CAVOK PROB30 TEMPO 2315/2317 FEW030CB
Issued Apr-23 @ 14:00 UTC
(9 hours ago)
Valid From Apr-23 @ 15:00 UTC
(8 hours ago)
Valid To Apr-24 @ 00:00 UTC
(in 53 minutes)
Apr-23 @ 15:00 - Apr-24 @ 00:00
Wind Visibility
Variable at 3 knots 10,000+ meters
Clouds
  • No significant clouds
Conditions
Apr-23 @ 15:00 - Apr-23 @ 17:00
Clouds
  • Few at 3,000' AGL